Time;durP1;ratioP1;P1;durP2;ratioP2;P2;SDS_P1;SDS_P2;PMS_P1;PMS_P2;Temp;Humidity;BMP_temperature;BMP_pressure;BME280_temperature;BME280_humidity;BME280_pressure;Samples;Min_cycle;Max_cycle;Signal;HPM_P1;HPM_P2
2021/06/16 00:01:32;;;;;;;10.43;5.75;;;;;;;;;;5092650;28;20552;-73
2021/06/16 00:03:58;;;;;;;6.07;4.40;;;;;;;;;;5092695;28;20178;-72
2021/06/16 00:06:24;;;;;;;7.63;4.72;;;;;;;;;;5094295;28;20312;-73
2021/06/16 00:08:50;;;;;;;5.10;4.60;;;;;;;;;;5096480;28;20175;-73
2021/06/16 00:11:16;;;;;;;7.85;4.88;;;;;;;;;;5102614;28;20199;-72
2021/06/16 00:13:42;;;;;;;7.90;4.60;;;;;;;;;;5100970;28;20237;-73
2021/06/16 00:16:08;;;;;;;6.83;5.13;;;;;;;;;;5096315;28;20778;-71
2021/06/16 00:18:34;;;;;;;7.28;4.63;;;;;;;;;;5096345;28;20467;-72
2021/06/16 00:21:00;;;;;;;6.57;4.82;;;;;;;;;;5096299;28;20167;-72
2021/06/16 00:23:26;;;;;;;6.57;5.10;;;;;;;;;;5095978;28;20532;-72
2021/06/16 00:25:52;;;;;;;5.65;4.53;;;;;;;;;;5096129;28;20180;-71
2021/06/16 00:28:18;;;;;;;5.72;4.80;;;;;;;;;;5102515;28;20170;-71
2021/06/16 00:30:44;;;;;;;5.55;4.85;;;;;;;;;;5097020;28;20643;-73
2021/06/16 00:33:10;;;;;;;6.05;4.40;;;;;;;;;;5096061;28;20179;-73
2021/06/16 00:35:36;;;;;;;7.57;4.63;;;;;;;;;;5096203;28;20183;-71
2021/06/16 00:38:03;;;;;;;7.85;5.00;;;;;;;;;;5095818;28;20242;-71
2021/06/16 00:40:29;;;;;;;5.80;4.50;;;;;;;;;;5096222;28;20236;-72
2021/06/16 00:43:02;;;;;;;5.13;4.40;;;;;;;;;;5095709;28;20421;-71
2021/06/16 00:45:29;;;;;;;7.10;4.53;;;;;;;;;;5103303;28;20170;-73
2021/06/16 00:47:56;;;;;;;9.40;5.00;;;;;;;;;;5116103;28;20224;-73
2021/06/16 00:50:23;;;;;;;5.05;4.55;;;;;;;;;;5116307;28;20190;-73
2021/06/16 00:52:50;;;;;;;6.82;4.60;;;;;;;;;;5115776;28;20710;-73
2021/06/16 00:55:16;;;;;;;6.43;4.95;;;;;;;;;;5116060;27;20185;-73
2021/06/16 00:57:42;;;;;;;8.87;5.00;;;;;;;;;;5115526;28;20520;-73
2021/06/16 01:00:12;;;;;;;6.40;5.30;;;;;;;;;;5115791;28;20753;-73
2021/06/16 01:02:41;;;;;;;7.93;5.10;;;;;;;;;;5100905;28;20210;-74
2021/06/16 01:05:08;;;;;;;7.78;5.28;;;;;;;;;;5095273;28;20183;-73
2021/06/16 01:07:38;;;;;;;7.97;5.10;;;;;;;;;;5095007;28;20556;-74
2021/06/16 01:10:05;;;;;;;6.13;5.43;;;;;;;;;;5097465;28;20180;-72
2021/06/16 01:12:31;;;;;;;6.95;5.47;;;;;;;;;;5103514;28;20195;-72
2021/06/16 01:15:02;;;;;;;5.30;4.80;;;;;;;;;;5095089;28;20186;-72
2021/06/16 01:17:34;;;;;;;9.98;5.80;;;;;;;;;;5094441;28;20421;-72
2021/06/16 01:20:00;;;;;;;7.18;4.80;;;;;;;;;;5094996;28;20176;-73
2021/06/16 01:22:36;;;;;;;10.05;5.45;;;;;;;;;;5094822;28;20275;-71
2021/06/16 01:25:05;;;;;;;6.03;5.40;;;;;;;;;;5094997;28;20528;-71
2021/06/16 01:27:31;;;;;;;6.28;5.53;;;;;;;;;;5094887;28;20176;-72
2021/06/16 01:29:59;;;;;;;6.35;5.53;;;;;;;;;;5095298;28;20211;-72
2021/06/16 01:32:25;;;;;;;5.93;5.32;;;;;;;;;;5101545;28;20213;-71
2021/06/16 01:34:51;;;;;;;8.13;5.00;;;;;;;;;;5115268;28;20183;-74
2021/06/16 01:37:17;;;;;;;5.63;5.13;;;;;;;;;;5115319;27;20182;-72
2021/06/16 01:39:44;;;;;;;7.75;5.45;;;;;;;;;;5115108;28;20251;-72
2021/06/16 01:42:13;;;;;;;8.18;5.82;;;;;;;;;;5115007;28;20306;-72
2021/06/16 01:44:39;;;;;;;6.88;6.15;;;;;;;;;;5115272;28;20175;-74
2021/06/16 01:47:06;;;;;;;6.10;5.50;;;;;;;;;;5115253;28;20177;-73
2021/06/16 01:49:33;;;;;;;5.78;5.20;;;;;;;;;;5114988;28;20190;-73
2021/06/16 01:51:59;;;;;;;7.18;5.38;;;;;;;;;;5107189;28;20195;-70
2021/06/16 01:54:27;;;;;;;7.18;6.22;;;;;;;;;;5094203;28;20262;-72
2021/06/16 01:56:53;;;;;;;8.68;5.20;;;;;;;;;;5094684;28;20523;-73
2021/06/16 01:59:20;;;;;;;6.97;5.90;;;;;;;;;;5094063;28;20207;-71
2021/06/16 02:01:49;;;;;;;10.23;6.70;;;;;;;;;;5094285;28;20206;-71
2021/06/16 02:04:17;;;;;;;5.93;5.32;;;;;;;;;;5094153;28;20179;-74
2021/06/16 02:06:44;;;;;;;8.25;5.88;;;;;;;;;;5094406;28;20516;-74
2021/06/16 02:09:12;;;;;;;6.20;5.60;;;;;;;;;;5094166;28;20178;-73
2021/06/16 02:11:39;;;;;;;8.95;6.20;;;;;;;;;;5109643;28;20218;-72
2021/06/16 02:14:06;;;;;;;9.45;5.30;;;;;;;;;;5097971;28;20175;-75
2021/06/16 02:16:52;;;;;;;5.05;4.65;;;;;;;;;;5094183;28;20229;-71
2021/06/16 02:19:25;;;;;;;5.50;4.95;;;;;;;;;;5086432;28;20226;-73
2021/06/16 02:21:54;;;;;;;8.00;4.82;;;;;;;;;;5094050;28;20234;-74
2021/06/16 02:24:20;;;;;;;5.43;4.78;;;;;;;;;;5093761;28;20536;-71
2021/06/16 02:26:46;;;;;;;6.20;4.75;;;;;;;;;;5093900;28;20175;-71
2021/06/16 02:29:13;;;;;;;10.90;4.85;;;;;;;;;;5100025;28;20176;-73
2021/06/16 02:31:40;;;;;;;4.70;4.13;;;;;;;;;;5094314;28;20199;-72
2021/06/16 02:34:06;;;;;;;6.20;5.17;;;;;;;;;;5093709;28;20466;-72
2021/06/16 02:36:35;;;;;;;7.70;5.00;;;;;;;;;;5093614;28;20470;-72
2021/06/16 02:39:03;;;;;;;6.57;4.90;;;;;;;;;;5093504;28;20191;-73
2021/06/16 02:41:29;;;;;;;7.00;4.47;;;;;;;;;;5093815;28;20452;-71
2021/06/16 02:43:56;;;;;;;6.40;4.95;;;;;;;;;;5093716;28;20584;-72
2021/06/16 02:46:22;;;;;;;5.90;5.30;;;;;;;;;;5093856;28;20171;-72
2021/06/16 02:48:49;;;;;;;9.25;5.25;;;;;;;;;;5093279;28;20309;-72
2021/06/16 02:54:01;;;;;;;8.88;5.30;;;;;;;;;;5093438;28;20767;-72
2021/06/16 02:56:28;;;;;;;5.33;4.83;;;;;;;;;;5093676;28;20184;-74
2021/06/16 03:01:39;;;;;;;6.43;4.70;;;;;;;;;;5093476;28;20256;-73
2021/06/16 03:04:05;;;;;;;6.55;5.20;;;;;;;;;;5093373;28;20204;-72
2021/06/16 03:06:32;;;;;;;5.72;4.95;;;;;;;;;;5093299;28;20183;-72
2021/06/16 03:08:59;;;;;;;9.40;5.20;;;;;;;;;;5093063;28;20636;-72
2021/06/16 03:11:25;;;;;;;9.38;4.90;;;;;;;;;;5099391;28;20191;-73
2021/06/16 03:13:52;;;;;;;5.87;5.10;;;;;;;;;;5097632;28;20180;-73
2021/06/16 03:16:18;;;;;;;8.20;5.63;;;;;;;;;;5097567;28;20416;-72
2021/06/16 03:18:45;;;;;;;6.07;5.47;;;;;;;;;;5113144;28;20277;-71
2021/06/16 03:21:12;;;;;;;5.90;5.00;;;;;;;;;;5113716;28;20436;-72
2021/06/16 03:23:38;;;;;;;7.93;6.05;;;;;;;;;;5113220;28;20404;-74
2021/06/16 03:26:04;;;;;;;8.32;6.60;;;;;;;;;;5113417;28;20257;-72
2021/06/16 03:28:31;;;;;;;6.80;6.10;;;;;;;;;;5113221;28;20174;-74
2021/06/16 03:30:58;;;;;;;7.63;6.28;;;;;;;;;;5094897;28;20183;-72
2021/06/16 03:33:25;;;;;;;7.22;5.30;;;;;;;;;;5092871;28;20187;-74
2021/06/16 03:35:51;;;;;;;6.75;5.47;;;;;;;;;;5093041;28;20176;-73
2021/06/16 03:38:17;;;;;;;7.78;5.88;;;;;;;;;;5093108;28;20211;-71
2021/06/16 03:40:44;;;;;;;7.22;5.80;;;;;;;;;;5095086;28;20178;-71
2021/06/16 03:43:11;;;;;;;6.45;5.85;;;;;;;;;;5096797;28;20698;-72
2021/06/16 03:45:38;;;;;;;7.00;6.15;;;;;;;;;;5096926;28;20648;-73
2021/06/16 03:48:05;;;;;;;6.60;5.90;;;;;;;;;;5096881;28;20259;-74
2021/06/16 03:50:31;;;;;;;6.72;6.10;;;;;;;;;;5096691;28;20204;-72
2021/06/16 03:52:58;;;;;;;8.25;5.63;;;;;;;;;;5096657;28;20195;-71
2021/06/16 03:55:24;;;;;;;6.60;6.00;;;;;;;;;;5096555;28;20180;-72
2021/06/16 03:57:50;;;;;;;9.75;6.97;;;;;;;;;;5096692;28;20195;-71
2021/06/16 04:00:18;;;;;;;10.15;5.75;;;;;;;;;;5096682;28;20167;-73
2021/06/16 04:02:46;;;;;;;7.50;6.22;;;;;;;;;;5096444;28;20286;-71
2021/06/16 04:05:12;;;;;;;11.07;6.53;;;;;;;;;;5096686;28;20168;-73
2021/06/16 04:07:38;;;;;;;7.43;6.37;;;;;;;;;;5096713;28;20249;-71
2021/06/16 04:10:05;;;;;;;8.43;6.45;;;;;;;;;;5098857;28;20405;-71
2021/06/16 04:12:31;;;;;;;9.25;7.75;;;;;;;;;;5113952;28;20198;-71
2021/06/16 04:14:58;;;;;;;8.55;6.13;;;;;;;;;;5096316;28;20203;-74
2021/06/16 04:17:24;;;;;;;7.97;6.38;;;;;;;;;;5096518;28;20319;-73
2021/06/16 04:19:51;;;;;;;9.25;6.50;;;;;;;;;;5096140;28;20175;-73
2021/06/16 04:22:18;;;;;;;7.40;6.70;;;;;;;;;;5096935;28;20525;-72
2021/06/16 04:24:44;;;;;;;7.95;6.53;;;;;;;;;;5096112;28;20405;-72
2021/06/16 04:27:10;;;;;;;8.30;6.90;;;;;;;;;;5096530;28;20168;-72
2021/06/16 04:29:37;;;;;;;7.70;6.07;;;;;;;;;;5103152;28;20398;-73
2021/06/16 04:32:03;;;;;;;7.57;6.50;;;;;;;;;;5096349;28;20231;-74
2021/06/16 04:34:29;;;;;;;8.03;7.23;;;;;;;;;;5094711;28;20187;-73
2021/06/16 04:36:55;;;;;;;10.40;6.30;;;;;;;;;;5096138;28;20410;-73
2021/06/16 04:39:21;;;;;;;7.10;6.43;;;;;;;;;;5095711;28;20468;-73
2021/06/16 04:41:47;;;;;;;5.90;5.30;;;;;;;;;;5096205;28;20436;-71
2021/06/16 04:44:13;;;;;;;6.40;5.20;;;;;;;;;;5095670;28;20402;-74
2021/06/16 04:46:39;;;;;;;6.10;5.60;;;;;;;;;;5096052;28;20406;-73
2021/06/16 04:49:06;;;;;;;5.23;4.73;;;;;;;;;;5096029;28;20413;-70
2021/06/16 04:51:32;;;;;;;5.77;5.17;;;;;;;;;;5094658;28;20430;-73
2021/06/16 04:53:58;;;;;;;7.67;6.50;;;;;;;;;;5094217;28;20779;-73
2021/06/16 04:56:24;;;;;;;4.97;4.57;;;;;;;;;;5095666;28;20425;-73
2021/06/16 04:58:50;;;;;;;7.77;6.13;;;;;;;;;;5095611;28;20461;-74
2021/06/16 05:01:16;;;;;;;5.43;5.00;;;;;;;;;;5095590;28;20430;-72
2021/06/16 05:03:42;;;;;;;5.13;4.63;;;;;;;;;;5095689;28;20805;-74
2021/06/16 05:06:08;;;;;;;6.27;4.73;;;;;;;;;;5095523;28;20422;-72
2021/06/16 05:08:34;;;;;;;5.33;4.23;;;;;;;;;;5095410;28;20409;-74
2021/06/16 05:11:00;;;;;;;5.43;4.70;;;;;;;;;;5105141;28;20807;-73
2021/06/16 05:13:27;;;;;;;7.00;5.13;;;;;;;;;;5104657;28;20406;-74
2021/06/16 05:15:54;;;;;;;7.30;5.73;;;;;;;;;;5095090;28;20410;-73
2021/06/16 05:18:21;;;;;;;6.53;5.47;;;;;;;;;;5095102;28;20534;-73
2021/06/16 05:20:47;;;;;;;8.43;5.87;;;;;;;;;;5095154;28;20430;-72
2021/06/16 05:23:13;;;;;;;7.13;5.93;;;;;;;;;;5095057;28;20418;-74
2021/06/16 05:25:41;;;;;;;7.43;6.00;;;;;;;;;;5095099;28;20441;-73
2021/06/16 05:28:07;;;;;;;6.57;5.07;;;;;;;;;;5099692;28;20418;-72
2021/06/16 05:30:33;;;;;;;8.20;5.53;;;;;;;;;;5096947;28;20424;-73
2021/06/16 05:33:00;;;;;;;6.70;5.70;;;;;;;;;;5095023;28;20899;-73
2021/06/16 05:35:26;;;;;;;9.13;6.07;;;;;;;;;;5094928;28;20752;-70
2021/06/16 05:37:52;;;;;;;6.67;5.10;;;;;;;;;;5094756;28;21018;-74
2021/06/16 05:40:18;;;;;;;10.20;5.60;;;;;;;;;;5094922;28;20770;-72
2021/06/16 05:42:44;;;;;;;8.50;5.33;;;;;;;;;;5097899;28;20448;-74
2021/06/16 05:45:11;;;;;;;9.73;5.47;;;;;;;;;;5096910;28;20407;-73
2021/06/16 05:47:37;;;;;;;7.03;5.10;;;;;;;;;;5094844;28;20410;-73
2021/06/16 05:50:04;;;;;;;8.80;5.90;;;;;;;;;;5094421;28;20424;-72
2021/06/16 05:52:30;;;;;;;6.37;4.90;;;;;;;;;;5094769;28;20430;-72
2021/06/16 05:54:56;;;;;;;5.43;4.93;;;;;;;;;;5094576;28;20494;-73
2021/06/16 05:57:22;;;;;;;7.00;4.53;;;;;;;;;;5094737;28;20504;-74
2021/06/16 05:59:48;;;;;;;5.40;4.30;;;;;;;;;;5094524;28;20444;-79
2021/06/16 06:02:14;;;;;;;7.87;4.33;;;;;;;;;;5094352;28;20821;-74
2021/06/16 06:04:41;;;;;;;4.40;4.07;;;;;;;;;;5094192;28;20469;-72
2021/06/16 06:07:07;;;;;;;5.70;4.33;;;;;;;;;;5094433;28;20790;-74
2021/06/16 06:09:33;;;;;;;4.40;3.90;;;;;;;;;;5092908;28;20839;-74
2021/06/16 06:11:59;;;;;;;4.50;3.93;;;;;;;;;;5112183;28;20530;-73
2021/06/16 06:14:25;;;;;;;3.97;3.50;;;;;;;;;;5103625;28;20435;-74
2021/06/16 06:16:52;;;;;;;3.93;3.10;;;;;;;;;;5094236;28;20416;-74
2021/06/16 06:19:18;;;;;;;5.27;3.70;;;;;;;;;;5093876;28;20471;-72
2021/06/16 06:21:44;;;;;;;4.47;3.20;;;;;;;;;;5093889;28;20429;-75
2021/06/16 06:24:10;;;;;;;5.30;3.53;;;;;;;;;;5093864;28;20820;-73
2021/06/16 06:26:37;;;;;;;7.73;3.80;;;;;;;;;;5094281;28;20416;-73
2021/06/16 06:29:03;;;;;;;8.00;3.80;;;;;;;;;;5101072;28;20428;-73
2021/06/16 06:31:30;;;;;;;4.40;3.07;;;;;;;;;;5093568;28;20441;-73
2021/06/16 06:33:56;;;;;;;4.80;3.73;;;;;;;;;;5093653;28;20424;-73
2021/06/16 06:36:22;;;;;;;4.37;2.87;;;;;;;;;;5093669;28;20415;-73
2021/06/16 06:38:49;;;;;;;4.87;3.20;;;;;;;;;;5093653;28;20461;-74
2021/06/16 06:41:15;;;;;;;3.60;3.00;;;;;;;;;;5093745;28;20961;-74
2021/06/16 06:43:41;;;;;;;4.80;3.40;;;;;;;;;;5093279;28;20409;-75
2021/06/16 06:46:07;;;;;;;5.10;2.63;;;;;;;;;;5096433;28;20410;-74
2021/06/16 06:48:33;;;;;;;5.33;3.00;;;;;;;;;;5089766;28;20422;-74
2021/06/16 06:51:00;;;;;;;4.10;3.10;;;;;;;;;;5089575;28;20413;-74
2021/06/16 06:53:28;;;;;;;6.53;4.27;;;;;;;;;;5096195;28;20528;-74
2021/06/16 06:55:54;;;;;;;8.80;4.63;;;;;;;;;;5095693;28;20468;-73
2021/06/16 06:58:20;;;;;;;3.97;3.57;;;;;;;;;;5089406;28;20468;-73
2021/06/16 07:00:46;;;;;;;4.13;2.80;;;;;;;;;;5089172;28;20410;-74
2021/06/16 07:03:12;;;;;;;4.80;3.23;;;;;;;;;;5114223;27;20858;-73
2021/06/16 07:05:38;;;;;;;4.67;3.50;;;;;;;;;;5089681;28;20437;-73
2021/06/16 07:08:04;;;;;;;3.90;3.20;;;;;;;;;;5100423;28;20434;-74
2021/06/16 07:10:31;;;;;;;4.70;3.37;;;;;;;;;;5091016;28;20416;-72
2021/06/16 07:12:57;;;;;;;5.07;3.27;;;;;;;;;;5102659;28;20441;-74
2021/06/16 07:15:23;;;;;;;4.53;2.80;;;;;;;;;;5106956;28;20417;-73
2021/06/16 07:17:49;;;;;;;5.13;4.40;;;;;;;;;;5089033;28;20464;-73
2021/06/16 07:20:18;;;;;;;4.80;4.13;;;;;;;;;;5089346;28;20767;-74
2021/06/16 07:22:45;;;;;;;6.17;3.33;;;;;;;;;;5088827;28;20433;-72
2021/06/16 07:25:12;;;;;;;4.23;3.83;;;;;;;;;;5089464;28;20410;-74
2021/06/16 07:27:38;;;;;;;3.90;3.30;;;;;;;;;;5090199;28;20521;-74
2021/06/16 07:30:06;;;;;;;4.63;3.20;;;;;;;;;;5095203;28;20509;-72
2021/06/16 07:32:32;;;;;;;7.30;4.70;;;;;;;;;;5094754;28;20440;-74
2021/06/16 07:34:59;;;;;;;5.30;3.47;;;;;;;;;;5094503;28;20414;-73
2021/06/16 07:37:26;;;;;;;5.93;3.30;;;;;;;;;;5089207;28;20454;-73
2021/06/16 07:39:53;;;;;;;4.67;3.67;;;;;;;;;;5099176;28;20425;-74
2021/06/16 07:42:20;;;;;;;4.40;3.47;;;;;;;;;;5089135;28;20483;-73
2021/06/16 07:44:46;;;;;;;4.30;3.10;;;;;;;;;;5088528;28;20453;-74
2021/06/16 07:47:11;;;;;;;3.63;3.33;;;;;;;;;;5103869;28;20833;-74
2021/06/16 07:49:38;;;;;;;5.00;3.67;;;;;;;;;;5094151;28;20428;-71
2021/06/16 07:52:04;;;;;;;5.77;3.80;;;;;;;;;;5087314;28;20452;-74
2021/06/16 07:54:30;;;;;;;5.23;3.70;;;;;;;;;;5088551;28;20549;-71
2021/06/16 07:56:56;;;;;;;3.60;3.30;;;;;;;;;;5088823;28;20508;-72
2021/06/16 07:59:22;;;;;;;5.57;3.20;;;;;;;;;;5088607;28;20471;-73
2021/06/16 08:01:48;;;;;;;6.67;3.10;;;;;;;;;;5088876;28;20847;-74
2021/06/16 08:04:15;;;;;;;6.10;4.10;;;;;;;;;;5088461;28;20445;-73
2021/06/16 08:06:41;;;;;;;5.47;3.73;;;;;;;;;;5088489;28;20440;-74
2021/06/16 08:09:08;;;;;;;4.37;3.40;;;;;;;;;;5088558;28;20417;-74
2021/06/16 08:11:34;;;;;;;4.30;3.37;;;;;;;;;;5103570;28;20464;-74
2021/06/16 08:14:00;;;;;;;8.57;4.20;;;;;;;;;;5088992;28;20804;-74
2021/06/16 08:16:26;;;;;;;6.10;4.00;;;;;;;;;;5088810;28;20473;-73
2021/06/16 08:18:52;;;;;;;6.37;3.93;;;;;;;;;;5087992;28;20818;-74
2021/06/16 08:21:19;;;;;;;5.80;4.20;;;;;;;;;;5089171;28;20984;-73
2021/06/16 08:23:46;;;;;;;7.53;4.53;;;;;;;;;;5097104;28;20435;-74
2021/06/16 08:26:12;;;;;;;7.47;4.80;;;;;;;;;;5088722;28;20484;-74
2021/06/16 08:28:38;;;;;;;4.83;4.30;;;;;;;;;;5098965;28;20774;-74
2021/06/16 08:31:05;;;;;;;5.40;4.30;;;;;;;;;;5092218;28;20444;-74
2021/06/16 08:33:31;;;;;;;6.30;4.70;;;;;;;;;;5091926;28;20413;-75
2021/06/16 08:35:57;;;;;;;9.33;3.73;;;;;;;;;;5092289;28;20413;-74
2021/06/16 08:38:23;;;;;;;5.13;2.90;;;;;;;;;;5097429;28;20467;-74
2021/06/16 08:40:49;;;;;;;3.93;3.37;;;;;;;;;;5100743;28;20414;-73
2021/06/16 08:43:15;;;;;;;5.87;3.73;;;;;;;;;;5092222;28;20409;-72
2021/06/16 08:45:42;;;;;;;5.47;4.10;;;;;;;;;;5092115;28;20420;-74
2021/06/16 08:48:08;;;;;;;7.47;3.20;;;;;;;;;;5091779;28;20432;-74
2021/06/16 08:50:35;;;;;;;7.10;3.27;;;;;;;;;;5092178;28;20475;-75
2021/06/16 08:53:01;;;;;;;3.37;2.50;;;;;;;;;;5091644;28;21018;-74
2021/06/16 08:55:27;;;;;;;3.90;2.57;;;;;;;;;;5092192;28;20421;-74
2021/06/16 08:57:53;;;;;;;4.30;2.60;;;;;;;;;;5091935;28;20464;-74
2021/06/16 09:00:20;;;;;;;3.90;2.80;;;;;;;;;;5092073;28;20413;-73
2021/06/16 09:02:46;;;;;;;4.40;2.57;;;;;;;;;;5091388;28;20441;-73
2021/06/16 09:05:12;;;;;;;6.17;2.70;;;;;;;;;;5092222;28;20486;-73
2021/06/16 09:07:39;;;;;;;5.97;3.07;;;;;;;;;;5091603;28;20437;-73
2021/06/16 09:10:09;;;;;;;5.93;2.80;;;;;;;;;;5092745;28;20466;-72
2021/06/16 09:12:36;;;;;;;11.00;3.30;;;;;;;;;;5108174;28;20433;-74
2021/06/16 09:15:03;;;;;;;5.03;3.10;;;;;;;;;;5091373;28;20476;-73
2021/06/16 09:17:29;;;;;;;4.30;2.97;;;;;;;;;;5091408;28;20420;-73
2021/06/16 09:19:56;;;;;;;4.60;2.80;;;;;;;;;;5091536;28;20426;-74
2021/06/16 09:22:30;;;;;;;7.60;4.07;;;;;;;;;;5091444;28;20438;-75
2021/06/16 09:24:57;;;;;;;4.73;3.57;;;;;;;;;;5091176;28;20412;-75
2021/06/16 09:27:42;;;;;;;4.93;3.43;;;;;;;;;;5091569;28;20425;-72
2021/06/16 09:30:21;;;;;;;6.10;4.00;;;;;;;;;;5090986;28;20421;-74
2021/06/16 09:32:48;;;;;;;7.73;3.80;;;;;;;;;;5095913;28;20477;-74
2021/06/16 09:35:22;;;;;;;5.43;3.00;;;;;;;;;;5094335;27;20440;-73
2021/06/16 09:37:48;;;;;;;4.13;3.63;;;;;;;;;;5093163;28;20424;-72
2021/06/16 09:40:15;;;;;;;6.10;3.20;;;;;;;;;;5111178;27;20540;-74
2021/06/16 09:42:41;;;;;;;3.30;3.00;;;;;;;;;;5111351;28;20471;-74
2021/06/16 09:45:08;;;;;;;4.70;3.13;;;;;;;;;;5111183;28;21056;-75
2021/06/16 09:47:34;;;;;;;6.40;3.37;;;;;;;;;;5102504;28;20420;-74
2021/06/16 09:50:00;;;;;;;4.57;2.60;;;;;;;;;;5091138;28;20496;-75
2021/06/16 09:52:37;;;;;;;4.83;3.73;;;;;;;;;;5089431;28;21038;-75
2021/06/16 09:55:07;;;;;;;4.07;3.60;;;;;;;;;;5090610;28;20500;-72
2021/06/16 09:57:34;;;;;;;5.63;3.50;;;;;;;;;;5090506;28;20410;-71
2021/06/16 10:00:02;;;;;;;4.33;2.93;;;;;;;;;;5090972;28;20409;-74
2021/06/16 10:02:30;;;;;;;6.50;3.30;;;;;;;;;;5091665;28;20440;-75
2021/06/16 10:05:01;;;;;;;4.80;3.00;;;;;;;;;;5090594;28;20414;-71
2021/06/16 10:07:28;;;;;;;4.70;3.10;;;;;;;;;;5090509;28;20429;-71
2021/06/16 10:09:54;;;;;;;3.90;2.73;;;;;;;;;;5100042;28;20429;-72
2021/06/16 10:12:21;;;;;;;4.03;2.80;;;;;;;;;;5109421;28;20434;-73
2021/06/16 10:14:47;;;;;;;3.13;2.83;;;;;;;;;;5095890;28;20514;-74
2021/06/16 10:17:16;;;;;;;4.23;3.00;;;;;;;;;;5090169;28;20487;-73
2021/06/16 10:19:43;;;;;;;4.07;2.70;;;;;;;;;;5094489;28;20461;-73
2021/06/16 10:22:09;;;;;;;3.20;2.70;;;;;;;;;;5090223;28;20434;-71
2021/06/16 10:24:35;;;;;;;4.47;2.60;;;;;;;;;;5090024;28;20433;-75
2021/06/16 10:27:02;;;;;;;4.33;2.57;;;;;;;;;;5090520;28;20417;-76
2021/06/16 10:29:31;;;;;;;3.77;2.67;;;;;;;;;;5096933;28;20424;-73
2021/06/16 10:32:02;;;;;;;3.90;2.73;;;;;;;;;;5090000;28;20473;-75
2021/06/16 10:34:48;;;;;;;3.20;2.50;;;;;;;;;;5100250;28;20976;-74
2021/06/16 10:37:24;;;;;;;3.97;2.53;;;;;;;;;;5090308;28;20421;-75
2021/06/16 10:40:08;;;;;;;5.40;3.03;;;;;;;;;;5099121;27;20971;-74
2021/06/16 10:42:53;;;;;;;2.63;2.30;;;;;;;;;;5089760;28;20425;-72
2021/06/16 10:45:21;;;;;;;4.80;2.60;;;;;;;;;;5089850;28;20495;-72
2021/06/16 10:47:56;;;;;;;2.67;2.20;;;;;;;;;;5090331;28;20425;-72
2021/06/16 10:50:42;;;;;;;4.43;2.30;;;;;;;;;;5089229;28;20812;-74
2021/06/16 10:53:08;;;;;;;2.90;2.47;;;;;;;;;;5089437;28;20409;-74
2021/06/16 10:55:57;;;;;;;3.40;2.67;;;;;;;;;;5089829;28;20847;-72
2021/06/16 10:58:27;;;;;;;4.20;2.60;;;;;;;;;;5084055;28;20429;-72
2021/06/16 11:01:26;;;;;;;2.57;2.30;;;;;;;;;;5096170;28;20420;-72
2021/06/16 11:03:54;;;;;;;3.00;2.60;;;;;;;;;;5066078;28;20429;-73
2021/06/16 11:06:35;;;;;;;3.00;2.57;;;;;;;;;;5089486;28;20425;-73
2021/06/16 11:09:02;;;;;;;2.70;2.30;;;;;;;;;;5089464;28;20495;-73
2021/06/16 11:11:49;;;;;;;4.43;2.77;;;;;;;;;;5103495;28;20951;-73
2021/06/16 11:14:36;;;;;;;3.07;2.47;;;;;;;;;;5089719;28;20421;-72
2021/06/16 11:17:02;;;;;;;3.80;2.73;;;;;;;;;;5088177;28;20505;-75
2021/06/16 11:19:38;;;;;;;5.13;2.43;;;;;;;;;;5089568;28;20417;-75
2021/06/16 11:22:13;;;;;;;2.77;2.57;;;;;;;;;;5089577;28;20449;-77
2021/06/16 11:24:58;;;;;;;2.43;2.23;;;;;;;;;;5089240;28;20751;-76
2021/06/16 11:27:43;;;;;;;3.40;3.10;;;;;;;;;;5089580;28;20420;-75
2021/06/16 11:30:10;;;;;;;3.47;2.83;;;;;;;;;;5089256;28;20524;-75
2021/06/16 11:32:36;;;;;;;3.77;3.20;;;;;;;;;;5089374;28;20798;-76
2021/06/16 11:35:02;;;;;;;4.00;3.03;;;;;;;;;;5104296;28;20412;-77
2021/06/16 11:37:46;;;;;;;3.10;2.47;;;;;;;;;;5109705;28;20461;-72
2021/06/16 11:40:12;;;;;;;3.73;2.47;;;;;;;;;;5090597;28;20414;-74
2021/06/16 11:42:42;;;;;;;3.73;2.73;;;;;;;;;;5100662;28;20436;-74
2021/06/16 11:45:08;;;;;;;5.67;2.80;;;;;;;;;;5091328;28;20802;-75
2021/06/16 11:47:34;;;;;;;3.20;2.60;;;;;;;;;;5090587;28;20815;-75
2021/06/16 11:50:00;;;;;;;3.53;2.97;;;;;;;;;;5088978;28;20518;-74
2021/06/16 11:52:26;;;;;;;2.83;2.43;;;;;;;;;;5089182;28;20520;-73
2021/06/16 11:54:52;;;;;;;3.17;2.70;;;;;;;;;;5088885;28;20421;-76
2021/06/16 11:57:19;;;;;;;3.40;2.90;;;;;;;;;;5089253;28;20902;-75
2021/06/16 11:59:49;;;;;;;4.30;3.60;;;;;;;;;;5096621;28;20505;-77
2021/06/16 12:02:19;;;;;;;4.10;2.93;;;;;;;;;;5092198;28;20464;-74
2021/06/16 12:04:53;;;;;;;3.00;2.80;;;;;;;;;;5092696;28;20409;-73
2021/06/16 12:07:24;;;;;;;5.77;2.80;;;;;;;;;;5091546;28;20806;-75
2021/06/16 12:09:52;;;;;;;2.73;2.53;;;;;;;;;;5092979;28;20461;-76
2021/06/16 12:12:18;;;;;;;4.00;3.20;;;;;;;;;;5102795;28;20493;-74
2021/06/16 12:14:44;;;;;;;2.67;2.37;;;;;;;;;;5092610;28;20435;-73
2021/06/16 12:17:10;;;;;;;4.80;4.17;;;;;;;;;;5092757;28;20490;-74
2021/06/16 12:19:37;;;;;;;3.40;3.10;;;;;;;;;;5092996;28;20459;-75
2021/06/16 12:22:04;;;;;;;3.47;2.77;;;;;;;;;;5092938;28;20436;-77
2021/06/16 12:24:32;;;;;;;3.47;2.90;;;;;;;;;;5092931;28;20449;-73
2021/06/16 12:26:57;;;;;;;3.13;2.77;;;;;;;;;;5092667;28;21049;-73
2021/06/16 12:29:24;;;;;;;3.13;2.83;;;;;;;;;;5099529;28;20461;-75
2021/06/16 12:31:51;;;;;;;4.30;2.77;;;;;;;;;;5092355;28;20437;-73
2021/06/16 12:34:36;;;;;;;4.93;2.73;;;;;;;;;;5092289;28;20413;-76
2021/06/16 12:37:06;;;;;;;3.33;2.97;;;;;;;;;;5092796;28;20441;-75
2021/06/16 12:39:35;;;;;;;3.90;3.07;;;;;;;;;;5102607;27;20420;-74
2021/06/16 12:42:08;;;;;;;7.30;3.87;;;;;;;;;;5092013;28;20845;-73
2021/06/16 12:44:40;;;;;;;3.20;2.90;;;;;;;;;;5092296;28;20833;-75
2021/06/16 12:47:08;;;;;;;3.80;3.20;;;;;;;;;;5092082;28;20417;-74
2021/06/16 12:49:35;;;;;;;4.37;2.97;;;;;;;;;;5091787;28;20464;-74
2021/06/16 12:52:04;;;;;;;3.30;3.10;;;;;;;;;;5092021;28;20468;-74
2021/06/16 12:54:32;;;;;;;3.73;3.07;;;;;;;;;;5092278;28;21141;-73
2021/06/16 12:56:59;;;;;;;3.07;2.87;;;;;;;;;;5092013;28;20515;-74
2021/06/16 12:59:32;;;;;;;4.80;3.50;;;;;;;;;;5091739;28;20420;-72
2021/06/16 13:01:58;;;;;;;3.63;3.33;;;;;;;;;;5100272;28;20441;-72
2021/06/16 13:04:43;;;;;;;3.73;3.43;;;;;;;;;;5095086;28;20436;-74
2021/06/16 13:07:09;;;;;;;4.40;4.10;;;;;;;;;;5103290;28;20532;-74
2021/06/16 13:09:35;;;;;;;4.70;4.40;;;;;;;;;;5092658;28;20500;-74
2021/06/16 13:12:05;;;;;;;4.50;4.10;;;;;;;;;;5100811;28;20428;-75
2021/06/16 13:14:35;;;;;;;4.60;4.20;;;;;;;;;;5091477;28;20415;-75
2021/06/16 13:17:05;;;;;;;4.60;4.10;;;;;;;;;;5091757;28;20405;-75
2021/06/16 13:19:31;;;;;;;4.57;4.17;;;;;;;;;;5091628;28;20425;-75
2021/06/16 13:21:58;;;;;;;5.90;4.70;;;;;;;;;;5096097;28;20940;-75
2021/06/16 13:24:24;;;;;;;4.30;4.00;;;;;;;;;;5104137;28;20834;-74
2021/06/16 13:26:58;;;;;;;4.90;4.50;;;;;;;;;;5092820;28;20413;-75
2021/06/16 13:29:28;;;;;;;5.37;4.97;;;;;;;;;;5098079;28;20532;-72
2021/06/16 13:31:54;;;;;;;5.20;4.70;;;;;;;;;;5091327;28;20429;-74
2021/06/16 13:34:20;;;;;;;4.50;4.20;;;;;;;;;;5090097;28;20428;-73
2021/06/16 13:36:46;;;;;;;5.10;4.60;;;;;;;;;;5091271;28;20421;-73
2021/06/16 13:39:12;;;;;;;5.10;4.70;;;;;;;;;;5100048;27;20420;-73
2021/06/16 13:41:38;;;;;;;5.23;4.70;;;;;;;;;;5091563;28;20442;-74
2021/06/16 13:44:05;;;;;;;4.87;4.57;;;;;;;;;;5092080;28;20430;-72
2021/06/16 13:46:31;;;;;;;5.20;4.90;;;;;;;;;;5091685;28;20563;-75
2021/06/16 13:48:57;;;;;;;5.30;4.80;;;;;;;;;;5090804;28;20468;-76
2021/06/16 13:51:23;;;;;;;5.87;5.23;;;;;;;;;;5091220;28;20438;-75
2021/06/16 13:53:49;;;;;;;5.50;5.00;;;;;;;;;;5090696;28;20748;-75
2021/06/16 13:56:15;;;;;;;5.57;5.00;;;;;;;;;;5102667;28;20420;-73
2021/06/16 13:58:41;;;;;;;5.47;5.10;;;;;;;;;;5100391;28;20782;-74
2021/06/16 14:01:07;;;;;;;5.20;4.90;;;;;;;;;;5093914;28;20440;-72
2021/06/16 14:03:33;;;;;;;5.20;4.90;;;;;;;;;;5100492;28;20474;-74
2021/06/16 14:06:00;;;;;;;5.83;5.33;;;;;;;;;;5090486;28;20453;-74
2021/06/16 14:08:26;;;;;;;6.10;5.03;;;;;;;;;;5090545;28;20791;-75
2021/06/16 14:10:52;;;;;;;5.30;4.90;;;;;;;;;;5097402;28;22850;-75
2021/06/16 14:13:18;;;;;;;6.37;5.87;;;;;;;;;;5096503;28;20409;-73
2021/06/16 14:15:45;;;;;;;5.90;5.07;;;;;;;;;;5091032;28;20413;-76
2021/06/16 14:18:11;;;;;;;5.90;5.40;;;;;;;;;;5100234;28;20412;-75
2021/06/16 14:20:37;;;;;;;6.40;5.70;;;;;;;;;;5094215;28;20409;-75
2021/06/16 14:23:03;;;;;;;6.20;5.70;;;;;;;;;;5090280;28;20433;-74
2021/06/16 14:25:30;;;;;;;6.00;5.40;;;;;;;;;;5089611;28;20485;-75
2021/06/16 14:27:56;;;;;;;10.23;9.53;;;;;;;;;;5093355;28;20440;-74
2021/06/16 14:30:23;;;;;;;5.27;4.87;;;;;;;;;;5093351;28;20421;-74
2021/06/16 14:32:49;;;;;;;6.50;5.90;;;;;;;;;;5089866;28;20459;-74
2021/06/16 14:35:16;;;;;;;5.60;5.20;;;;;;;;;;5090339;28;20481;-73
2021/06/16 14:37:42;;;;;;;6.20;5.67;;;;;;;;;;5093614;27;20910;-73
2021/06/16 14:40:10;;;;;;;5.70;5.20;;;;;;;;;;5095204;27;20455;-74
2021/06/16 14:42:36;;;;;;;6.10;5.70;;;;;;;;;;5089829;28;20437;-73
2021/06/16 14:45:03;;;;;;;6.40;6.00;;;;;;;;;;5089984;28;20479;-75
2021/06/16 14:47:29;;;;;;;6.13;5.60;;;;;;;;;;5089766;28;20413;-73
2021/06/16 14:49:55;;;;;;;6.10;5.70;;;;;;;;;;5089590;28;20507;-76
2021/06/16 14:52:21;;;;;;;5.63;5.10;;;;;;;;;;5090119;28;20851;-75